createdAt,value
2019-02-28T00:01:32.506Z,9.83
2019-02-28T00:04:00.620Z,10.30
2019-02-28T00:06:28.620Z,9.90
2019-02-28T00:08:56.639Z,10.30
2019-02-28T00:11:24.632Z,10.20
2019-02-28T00:13:55.974Z,9.90
2019-02-28T00:16:22.699Z,10.13
2019-02-28T00:18:50.785Z,10.10
2019-02-28T00:21:18.697Z,9.60
2019-02-28T00:23:46.811Z,9.97
2019-02-28T00:26:14.564Z,9.70
2019-02-28T00:28:42.447Z,9.23
2019-02-28T00:31:14.215Z,9.90
2019-02-28T00:33:40.468Z,9.47
2019-02-28T00:36:08.392Z,9.43
2019-02-28T00:38:36.485Z,8.87
2019-02-28T00:41:04.735Z,10.37
2019-02-28T00:43:32.714Z,9.60
2019-02-28T00:46:00.600Z,10.10
2019-02-28T00:48:28.662Z,9.73
2019-02-28T00:50:58.546Z,10.03
2019-02-28T00:53:26.675Z,10.27
2019-02-28T00:55:54.809Z,10.03
2019-02-28T00:58:22.918Z,9.23
2019-02-28T01:00:50.853Z,9.40
2019-02-28T01:03:19.897Z,9.80
2019-02-28T01:05:47.763Z,9.13
2019-02-28T01:08:16.021Z,8.83
2019-02-28T01:10:44.290Z,9.27
2019-02-28T01:13:14.005Z,9.63
2019-02-28T01:15:45.088Z,9.33
2019-02-28T01:18:11.689Z,9.20
2019-02-28T01:20:39.746Z,8.77
2019-02-28T01:23:07.616Z,9.80
2019-02-28T01:25:37.203Z,8.93
2019-02-28T01:28:05.426Z,8.70
2019-02-28T01:30:33.338Z,8.93
2019-02-28T01:33:01.321Z,9.83
2019-02-28T01:35:29.137Z,9.23
2019-02-28T01:37:56.948Z,9.37
2019-02-28T01:40:24.678Z,8.87
2019-02-28T01:42:54.839Z,9.17
2019-02-28T01:45:22.458Z,8.90
2019-02-28T01:47:51.907Z,9.70
2019-02-28T01:50:20.515Z,8.67
2019-02-28T01:52:49.511Z,8.33
2019-02-28T01:55:17.457Z,10.00
2019-02-28T01:57:45.491Z,8.87
2019-02-28T02:00:14.018Z,8.53
2019-02-28T02:02:41.787Z,8.83
2019-02-28T02:05:09.774Z,8.33
2019-02-28T02:07:37.614Z,9.13
2019-02-28T02:10:11.167Z,8.67
2019-02-28T02:12:39.018Z,8.57
2019-02-28T02:15:07.809Z,8.20
2019-02-28T02:17:36.242Z,8.83
2019-02-28T02:20:04.511Z,8.97
2019-02-28T02:22:32.323Z,8.53
2019-02-28T02:25:02.947Z,8.90
2019-02-28T02:27:30.808Z,8.83
2019-02-28T02:29:58.852Z,9.00
2019-02-28T02:32:26.863Z,8.17
2019-02-28T02:34:54.924Z,8.57
2019-02-28T02:37:26.393Z,9.10
2019-02-28T02:39:52.766Z,8.47
2019-02-28T02:42:20.702Z,8.73
2019-02-28T02:44:48.629Z,6.93
2019-02-28T02:47:16.715Z,8.33
2019-02-28T02:49:44.625Z,8.80
2019-02-28T02:52:12.383Z,8.57
2019-02-28T02:54:40.331Z,8.43
2019-02-28T02:57:08.318Z,8.87
2019-02-28T02:59:38.947Z,8.37
2019-02-28T03:02:06.249Z,8.67
2019-02-28T03:04:34.223Z,8.57
2019-02-28T03:07:02.199Z,8.03
2019-02-28T03:09:30.317Z,8.40
2019-02-28T03:11:58.841Z,8.97
2019-02-28T03:14:26.765Z,8.67
2019-02-28T03:16:54.656Z,8.63
2019-02-28T03:19:22.609Z,9.00
2019-02-28T03:21:52.613Z,7.83
2019-02-28T03:24:20.505Z,8.67
2019-02-28T03:26:48.352Z,8.73
2019-02-28T03:29:16.225Z,8.10
2019-02-28T03:31:55.073Z,8.33
2019-02-28T03:34:14.372Z,7.80
2019-02-28T03:36:42.566Z,9.17
2019-02-28T03:39:10.776Z,7.43
2019-02-28T03:41:38.531Z,8.23
2019-02-28T03:44:07.585Z,8.07
2019-02-28T03:46:35.656Z,8.63
2019-02-28T03:49:11.170Z,8.33
2019-02-28T03:51:33.591Z,8.10
2019-02-28T03:54:01.458Z,8.30
2019-02-28T03:56:29.433Z,7.70
2019-02-28T03:58:57.628Z,7.63
2019-02-28T04:01:25.584Z,8.30
2019-02-28T04:03:53.636Z,8.33
2019-02-28T04:06:21.525Z,8.60
2019-02-28T04:08:49.774Z,8.03
2019-02-28T04:11:17.816Z,8.20
2019-02-28T04:13:45.753Z,8.47
2019-02-28T04:16:14.937Z,7.67
2019-02-28T04:18:46.102Z,8.27
2019-02-28T04:21:12.731Z,8.23
2019-02-28T04:23:40.665Z,8.07
2019-02-28T04:26:08.545Z,7.97
2019-02-28T04:28:36.720Z,8.57
2019-02-28T04:31:04.990Z,8.10
2019-02-28T04:33:37.358Z,7.53
2019-02-28T04:36:02.901Z,8.03
2019-02-28T04:38:30.840Z,8.53
2019-02-28T04:40:59.130Z,8.43
2019-02-28T04:43:28.080Z,8.07
2019-02-28T04:45:57.665Z,9.33
2019-02-28T04:48:26.056Z,8.57
2019-02-28T04:50:54.043Z,8.73
2019-02-28T04:53:22.067Z,8.27
2019-02-28T04:55:50.108Z,8.17
2019-02-28T04:58:18.207Z,8.47
2019-02-28T05:00:46.219Z,8.53
2019-02-28T05:03:14.260Z,8.73
2019-02-28T05:05:46.499Z,7.87
2019-02-28T05:08:12.105Z,8.47
2019-02-28T05:10:39.988Z,8.10
2019-02-28T05:13:07.860Z,9.17
2019-02-28T05:15:38.500Z,8.47
2019-02-28T05:18:06.030Z,8.27
2019-02-28T05:20:35.140Z,8.73
2019-02-28T05:23:03.266Z,8.30
2019-02-28T05:25:31.309Z,8.93
2019-02-28T05:27:59.555Z,9.60
2019-02-28T05:30:27.455Z,8.97
2019-02-28T05:32:55.414Z,9.73
2019-02-28T05:35:30.432Z,9.70
2019-02-28T05:37:58.617Z,9.63
2019-02-28T05:40:26.670Z,9.13
2019-02-28T05:42:58.517Z,9.17
2019-02-28T05:45:24.503Z,9.20
2019-02-28T05:47:52.505Z,9.47
2019-02-28T05:50:20.532Z,9.67
2019-02-28T05:52:48.587Z,10.00
2019-02-28T05:55:16.642Z,11.13
2019-02-28T05:57:45.018Z,9.23
2019-02-28T06:00:14.427Z,8.40
2019-02-28T06:02:42.569Z,9.80
2019-02-28T06:05:11.954Z,8.90
2019-02-28T06:07:40.552Z,8.97
2019-02-28T06:10:08.653Z,8.70
2019-02-28T06:12:36.602Z,9.37
2019-02-28T06:15:05.885Z,10.13
2019-02-28T06:17:33.812Z,9.90
2019-02-28T06:20:01.848Z,9.03
2019-02-28T06:22:31.082Z,11.10
2019-02-28T06:24:59.710Z,10.57
2019-02-28T06:27:27.563Z,10.13
2019-02-28T06:29:55.443Z,10.00
2019-02-28T06:32:24.741Z,9.80
2019-02-28T06:34:52.825Z,9.60
2019-02-28T06:37:20.643Z,9.70
2019-02-28T06:39:48.457Z,9.70
2019-02-28T06:42:16.373Z,10.60
2019-02-28T06:44:44.205Z,10.30
2019-02-28T06:47:14.196Z,10.13
2019-02-28T06:49:42.145Z,10.03
2019-02-28T06:52:10.183Z,9.07
2019-02-28T06:54:39.942Z,9.50
2019-02-28T06:57:07.996Z,10.00
2019-02-28T06:59:36.187Z,10.43
2019-02-28T07:02:05.941Z,11.60
2019-02-28T07:04:33.822Z,11.60
2019-02-28T07:07:01.902Z,11.93
2019-02-28T07:09:30.526Z,11.20
2019-02-28T07:11:58.631Z,13.47
2019-02-28T07:14:26.993Z,11.87
2019-02-28T07:16:54.789Z,12.13
2019-02-28T07:19:26.287Z,12.33
2019-02-28T07:21:52.515Z,11.60
2019-02-28T07:24:20.489Z,11.73
2019-02-28T07:26:52.263Z,11.17
2019-02-28T07:29:18.609Z,9.77
2019-02-28T07:31:46.733Z,9.13
2019-02-28T07:34:19.691Z,9.47
2019-02-28T07:36:45.750Z,10.17
2019-02-28T07:39:13.965Z,9.80
2019-02-28T07:41:42.116Z,9.77
2019-02-28T07:44:10.028Z,9.17
2019-02-28T07:46:38.826Z,9.00
2019-02-28T07:49:09.649Z,8.13
2019-02-28T07:51:37.916Z,7.67
2019-02-28T07:54:05.983Z,8.03
2019-02-28T07:56:34.183Z,8.60
2019-02-28T07:59:05.346Z,8.13
2019-02-28T08:01:36.073Z,7.97
2019-02-28T08:04:04.109Z,8.00
2019-02-28T08:06:32.211Z,9.07
2019-02-28T08:09:01.778Z,8.07
2019-02-28T08:11:32.042Z,7.77
2019-02-28T08:13:59.886Z,7.47
2019-02-28T08:16:30.612Z,8.70
2019-02-28T08:18:57.765Z,8.87
2019-02-28T08:21:25.912Z,7.50
2019-02-28T08:23:53.709Z,8.80
2019-02-28T08:26:21.848Z,8.53
2019-02-28T08:28:49.851Z,7.60
2019-02-28T08:31:17.747Z,7.43
2019-02-28T08:33:48.181Z,6.67
2019-02-28T08:36:15.652Z,7.80
2019-02-28T08:38:43.810Z,7.40
2019-02-28T08:41:11.784Z,7.23
2019-02-28T08:43:39.641Z,7.10
2019-02-28T08:46:11.113Z,6.83
2019-02-28T08:48:37.229Z,7.57
2019-02-28T08:51:05.460Z,6.47
2019-02-28T08:53:33.456Z,7.10
2019-02-28T08:56:01.424Z,6.83
2019-02-28T08:58:29.380Z,7.20
2019-02-28T09:00:57.377Z,6.53
2019-02-28T09:03:27.396Z,6.73
2019-02-28T09:05:55.517Z,6.73
2019-02-28T09:08:25.320Z,6.70
2019-02-28T09:10:53.495Z,6.80
2019-02-28T09:13:21.412Z,7.67
2019-02-28T09:15:50.640Z,7.40
2019-02-28T09:18:18.917Z,7.43
2019-02-28T09:20:46.987Z,6.73
2019-02-28T09:23:14.924Z,7.17
2019-02-28T09:25:43.027Z,8.03
2019-02-28T09:28:13.150Z,8.63
2019-02-28T09:30:40.789Z,8.67
2019-02-28T09:33:08.650Z,8.90
2019-02-28T09:35:36.744Z,8.67
2019-02-28T09:38:08.030Z,9.63
2019-02-28T09:40:34.420Z,9.50
2019-02-28T09:43:02.216Z,10.83
2019-02-28T09:45:30.462Z,10.10
2019-02-28T09:48:01.837Z,9.67
2019-02-28T09:50:28.292Z,9.53
2019-02-28T09:52:56.328Z,9.30
2019-02-28T09:55:24.530Z,9.23
2019-02-28T09:57:54.817Z,8.00
2019-02-28T10:00:22.609Z,9.40
2019-02-28T10:02:50.680Z,8.93
2019-02-28T10:05:18.703Z,8.50
2019-02-28T10:07:46.875Z,8.63
2019-02-28T10:10:17.474Z,9.47
2019-02-28T10:12:46.648Z,9.13
2019-02-28T10:15:16.261Z,7.67
2019-02-28T10:17:44.230Z,7.90
2019-02-28T10:20:16.358Z,9.20
2019-02-28T10:22:47.325Z,8.43
2019-02-28T10:25:14.977Z,6.90
2019-02-28T10:27:43.092Z,6.77
2019-02-28T10:30:15.949Z,7.23
2019-02-28T10:32:44.106Z,5.97
2019-02-28T10:35:13.096Z,5.90
2019-02-28T10:37:40.988Z,6.70
2019-02-28T10:40:10.788Z,5.83
2019-02-28T10:42:41.250Z,5.20
2019-02-28T10:45:09.783Z,6.03
2019-02-28T10:47:37.810Z,5.70
2019-02-28T10:50:07.689Z,5.33
2019-02-28T10:52:35.732Z,4.43
2019-02-28T10:55:04.115Z,5.23
2019-02-28T10:57:32.229Z,4.40
2019-02-28T11:00:00.230Z,3.87
2019-02-28T11:02:28.680Z,4.50
2019-02-28T11:04:56.647Z,3.90
2019-02-28T11:07:25.063Z,3.70
2019-02-28T11:09:55.637Z,3.80
2019-02-28T11:12:24.267Z,3.37
2019-02-28T11:14:52.333Z,3.10
2019-02-28T11:17:20.322Z,3.43
2019-02-28T11:19:48.521Z,3.30
2019-02-28T11:22:18.420Z,3.37
2019-02-28T11:24:46.681Z,3.93
2019-02-28T11:27:16.156Z,3.50
2019-02-28T11:29:44.659Z,3.43
2019-02-28T11:32:12.659Z,3.60
2019-02-28T11:34:40.522Z,2.87
2019-02-28T11:37:09.079Z,2.90
2019-02-28T11:39:38.037Z,3.10
2019-02-28T11:42:06.537Z,3.87
2019-02-28T11:44:34.441Z,3.10
2019-02-28T11:47:02.236Z,3.23
2019-02-28T11:49:30.242Z,3.57
2019-02-28T11:51:58.275Z,2.80
2019-02-28T11:54:26.308Z,3.07
2019-02-28T11:56:54.237Z,3.30
2019-02-28T11:59:24.205Z,3.10
2019-02-28T12:01:52.155Z,3.10
2019-02-28T12:04:20.090Z,3.17
2019-02-28T12:06:48.183Z,3.33
2019-02-28T12:09:16.326Z,3.00
2019-02-28T12:11:46.102Z,2.87
2019-02-28T12:14:14.244Z,2.80
2019-02-28T12:16:42.292Z,3.40
2019-02-28T12:19:12.476Z,2.97
2019-02-28T12:21:40.305Z,3.50
2019-02-28T12:24:08.091Z,3.17
2019-02-28T12:26:36.133Z,3.63
2019-02-28T12:29:04.082Z,3.53
2019-02-28T12:31:35.556Z,3.87
2019-02-28T12:34:01.933Z,3.57
2019-02-28T12:36:30.035Z,3.90
2019-02-28T12:38:59.419Z,3.43
2019-02-28T12:41:28.015Z,3.73
2019-02-28T12:43:56.218Z,3.03
2019-02-28T12:46:24.372Z,3.20
2019-02-28T12:48:52.277Z,2.67
2019-02-28T12:51:21.281Z,3.37
2019-02-28T12:53:49.366Z,3.00
2019-02-28T12:56:17.458Z,3.07
2019-02-28T12:58:45.462Z,2.80
2019-02-28T13:01:13.865Z,3.30
2019-02-28T13:03:42.075Z,3.00
2019-02-28T13:06:10.122Z,3.03
2019-02-28T13:08:38.671Z,3.40
2019-02-28T13:11:08.346Z,2.80
2019-02-28T13:13:36.395Z,2.80
2019-02-28T13:16:04.504Z,2.40
2019-02-28T13:18:32.663Z,1.90
2019-02-28T13:21:00.605Z,2.10
2019-02-28T13:23:32.893Z,1.80
2019-02-28T13:26:00.035Z,2.20
2019-02-28T13:28:28.514Z,1.80
2019-02-28T13:30:56.762Z,1.63
2019-02-28T13:33:24.840Z,1.70
2019-02-28T13:35:52.993Z,1.80
2019-02-28T13:38:20.890Z,1.80
2019-02-28T13:40:49.087Z,1.60
2019-02-28T13:43:20.982Z,1.80
2019-02-28T13:45:50.653Z,2.30
2019-02-28T13:48:25.611Z,2.50
2019-02-28T13:50:46.592Z,2.50
2019-02-28T13:53:18.576Z,2.23
2019-02-28T13:55:44.434Z,2.72
2019-02-28T13:58:12.554Z,2.47
2019-02-28T14:00:45.590Z,2.17
2019-02-28T14:03:10.663Z,2.20
2019-02-28T14:05:40.972Z,2.10
2019-02-28T14:08:12.006Z,1.80
2019-02-28T14:10:40.479Z,1.90
2019-02-28T14:13:08.534Z,1.77
2019-02-28T14:15:39.327Z,1.82
2019-02-28T14:18:07.496Z,1.90
2019-02-28T14:20:38.262Z,1.53
2019-02-28T14:23:07.731Z,1.73
2019-02-28T14:25:36.384Z,1.50
2019-02-28T14:28:06.128Z,1.70
2019-02-28T14:30:34.063Z,1.67
2019-02-28T14:33:02.271Z,1.40
2019-02-28T14:35:34.123Z,1.30
2019-02-28T14:38:00.196Z,1.05
2019-02-28T14:40:28.383Z,1.20
2019-02-28T14:42:56.511Z,1.37
2019-02-28T14:45:24.779Z,1.53
2019-02-28T14:47:56.802Z,1.27
2019-02-28T14:50:22.619Z,1.30
2019-02-28T14:52:51.325Z,1.30
2019-02-28T14:55:19.695Z,1.40
2019-02-28T14:57:48.900Z,1.10
2019-02-28T15:00:23.965Z,1.20
2019-02-28T15:02:51.862Z,1.13
2019-02-28T15:05:20.630Z,1.30
2019-02-28T15:07:49.861Z,1.63
2019-02-28T15:10:18.241Z,1.20
2019-02-28T15:12:46.101Z,1.10
2019-02-28T15:15:17.963Z,1.20
2019-02-28T15:17:45.632Z,1.40
2019-02-28T15:20:13.927Z,1.33
2019-02-28T15:22:41.990Z,1.23
2019-02-28T15:25:11.122Z,1.40
2019-02-28T15:27:39.885Z,1.30
2019-02-28T15:30:11.059Z,1.70
2019-02-28T15:32:41.836Z,1.33
2019-02-28T15:35:12.440Z,1.50
2019-02-28T15:37:41.666Z,1.60
2019-02-28T15:40:11.818Z,1.30
2019-02-28T15:42:42.866Z,1.20
2019-02-28T15:45:09.927Z,1.67
2019-02-28T15:47:38.188Z,1.60
2019-02-28T15:50:07.052Z,1.57
2019-02-28T15:52:36.685Z,1.63
2019-02-28T15:55:05.334Z,1.80
2019-02-28T15:57:33.425Z,1.60
2019-02-28T16:00:01.424Z,1.53
2019-02-28T16:02:29.320Z,1.50
2019-02-28T16:05:05.181Z,1.70
2019-02-28T16:07:32.266Z,1.70
2019-02-28T16:09:58.446Z,1.80
2019-02-28T16:12:26.367Z,1.50
2019-02-28T16:14:54.306Z,1.70
2019-02-28T16:17:22.207Z,1.70
2019-02-28T16:19:53.222Z,1.73
2019-02-28T16:22:20.393Z,1.70
2019-02-28T16:24:49.717Z,1.87
2019-02-28T16:27:20.503Z,1.80
2019-02-28T16:29:48.388Z,2.30
2019-02-28T16:32:18.225Z,1.77
2019-02-28T16:34:48.100Z,1.60
2019-02-28T16:37:16.346Z,2.00
2019-02-28T16:39:44.254Z,1.90
2019-02-28T16:42:12.505Z,2.03
2019-02-28T16:44:40.625Z,1.80
2019-02-28T16:47:08.639Z,2.13
2019-02-28T16:49:36.648Z,2.20
2019-02-28T16:52:06.084Z,2.30
2019-02-28T16:54:34.588Z,2.80
2019-02-28T16:57:02.641Z,2.47
2019-02-28T16:59:31.701Z,2.40
2019-02-28T17:02:00.442Z,2.57
2019-02-28T17:04:28.359Z,2.20
2019-02-28T17:06:56.609Z,2.00
2019-02-28T17:09:35.636Z,2.70
2019-02-28T17:12:11.613Z,2.30
2019-02-28T17:14:39.547Z,2.17
2019-02-28T17:17:29.752Z,2.40
2019-02-28T17:19:57.834Z,2.40
2019-02-28T17:22:27.021Z,2.43
2019-02-28T17:24:55.595Z,2.73
2019-02-28T17:27:48.885Z,2.57
2019-02-28T17:30:32.995Z,2.80
2019-02-28T17:33:01.592Z,2.93
2019-02-28T17:35:30.663Z,2.20
2019-02-28T17:38:00.197Z,2.60
2019-02-28T17:40:29.297Z,2.93
2019-02-28T17:42:57.442Z,2.37
2019-02-28T17:45:28.803Z,2.50
2019-02-28T17:48:48.538Z,2.77
2019-02-28T17:51:42.467Z,3.10
2019-02-28T17:54:49.885Z,3.17
2019-02-28T17:58:11.589Z,2.60
2019-02-28T18:01:09.711Z,2.60
2019-02-28T18:04:16.974Z,2.93
2019-02-28T18:07:42.730Z,2.90
2019-02-28T18:10:55.750Z,3.27
2019-02-28T18:13:52.140Z,3.50
2019-02-28T18:16:44.889Z,3.20
2019-02-28T18:19:57.578Z,2.97
2019-02-28T18:22:54.051Z,3.20
2019-02-28T18:25:58.822Z,2.80
2019-02-28T18:29:09.715Z,3.27
2019-02-28T18:31:37.759Z,3.37
2019-02-28T18:34:11.199Z,3.43
2019-02-28T18:36:40.141Z,3.43
2019-02-28T18:39:11.683Z,3.23
2019-02-28T18:41:42.150Z,3.43
2019-02-28T18:44:09.966Z,3.40
2019-02-28T18:46:37.994Z,3.43
2019-02-28T18:49:06.064Z,3.30
2019-02-28T18:51:34.119Z,3.23
2019-02-28T18:54:02.433Z,3.70
2019-02-28T18:56:30.873Z,3.47
2019-02-28T18:58:58.797Z,3.80
2019-02-28T19:01:26.847Z,3.47
2019-02-28T19:03:56.558Z,3.50
2019-02-28T19:06:24.666Z,3.70
2019-02-28T19:08:55.762Z,3.90
2019-02-28T19:11:23.815Z,4.10
2019-02-28T19:13:51.893Z,3.53
2019-02-28T19:16:19.806Z,4.40
2019-02-28T19:18:47.909Z,4.10
2019-02-28T19:21:15.800Z,3.93
2019-02-28T19:23:43.944Z,4.07
2019-02-28T19:26:11.894Z,4.07
2019-02-28T19:28:39.820Z,4.00
2019-02-28T19:31:07.680Z,4.17
2019-02-28T19:33:35.730Z,4.20
2019-02-28T19:36:03.330Z,3.80
2019-02-28T19:38:31.009Z,3.83
2019-02-28T19:40:58.698Z,3.57
2019-02-28T19:43:26.408Z,4.10
2019-02-28T19:45:54.284Z,4.40
2019-02-28T19:48:24.999Z,3.50
2019-02-28T19:50:53.387Z,4.50
2019-02-28T19:53:20.933Z,4.70
2019-02-28T19:55:48.550Z,4.10
2019-02-28T19:58:16.186Z,4.10
2019-02-28T20:00:43.861Z,4.57
2019-02-28T20:03:11.476Z,4.50
2019-02-28T20:05:39.260Z,4.37
2019-02-28T20:08:07.000Z,4.10
2019-02-28T20:10:34.772Z,4.80
2019-02-28T20:13:03.684Z,4.67
2019-02-28T20:15:33.080Z,4.93
2019-02-28T20:18:00.901Z,4.50
2019-02-28T20:20:28.735Z,4.93
2019-02-28T20:22:56.589Z,4.73
2019-02-28T20:25:24.321Z,5.00
2019-02-28T20:27:52.107Z,5.23
2019-02-28T20:30:21.637Z,4.53
2019-02-28T20:32:49.492Z,5.33
2019-02-28T20:35:25.909Z,4.60
2019-02-28T20:37:46.950Z,4.43
2019-02-28T20:40:17.994Z,4.30
2019-02-28T20:42:45.523Z,5.17
2019-02-28T20:45:13.127Z,4.47
2019-02-28T20:47:40.784Z,4.67
2019-02-28T20:50:11.942Z,4.40
2019-02-28T20:52:39.579Z,4.17
2019-02-28T20:55:07.399Z,5.53
2019-02-28T20:57:35.258Z,4.80
2019-02-28T21:00:04.083Z,5.03
2019-02-28T21:02:32.072Z,4.43
2019-02-28T21:04:59.797Z,4.67
2019-02-28T21:07:27.502Z,4.37
2019-02-28T21:09:55.172Z,4.13
2019-02-28T21:12:22.926Z,4.57
2019-02-28T21:14:50.538Z,5.50
2019-02-28T21:17:18.148Z,4.47
2019-02-28T21:19:45.885Z,4.70
2019-02-28T21:22:13.473Z,4.43
2019-02-28T21:24:41.089Z,3.70
2019-02-28T21:27:11.325Z,4.07
2019-02-28T21:29:38.985Z,3.73
2019-02-28T21:32:06.690Z,4.20
2019-02-28T21:34:34.465Z,4.43
2019-02-28T21:37:03.318Z,4.30
2019-02-28T21:39:30.970Z,4.80
2019-02-28T21:41:58.579Z,10.23
2019-02-28T21:44:26.368Z,5.80
2019-02-28T21:46:54.058Z,5.83
2019-02-28T21:49:21.714Z,6.10
2019-02-28T21:51:49.362Z,6.37
2019-02-28T21:54:16.994Z,5.43
2019-02-28T21:56:45.795Z,5.40
2019-02-28T21:59:13.352Z,5.47
2019-02-28T22:01:40.991Z,5.10
2019-02-28T22:04:08.597Z,5.73
2019-02-28T22:06:36.196Z,5.37
2019-02-28T22:09:05.032Z,5.50
2019-02-28T22:11:37.128Z,5.50
2019-02-28T22:14:04.671Z,5.20
2019-02-28T22:16:33.254Z,5.23
2019-02-28T22:19:00.824Z,5.57
2019-02-28T22:21:28.435Z,5.50
2019-02-28T22:23:55.985Z,5.00
2019-02-28T22:26:23.508Z,5.77
2019-02-28T22:28:52.628Z,5.70
2019-02-28T22:31:47.947Z,6.30
2019-02-28T22:34:37.845Z,5.33
2019-02-28T22:37:05.426Z,5.53
2019-02-28T22:39:33.083Z,5.40
2019-02-28T22:42:00.668Z,5.67
2019-02-28T22:44:28.317Z,5.40
2019-02-28T22:46:55.863Z,5.07
2019-02-28T22:49:23.548Z,5.00
2019-02-28T22:51:51.079Z,5.00
2019-02-28T22:54:18.747Z,4.50
2019-02-28T22:56:46.299Z,4.63
2019-02-28T22:59:13.926Z,5.10
2019-02-28T23:01:41.651Z,5.33
2019-02-28T23:04:09.343Z,5.07
2019-02-28T23:06:36.921Z,4.60
2019-02-28T23:09:05.688Z,4.87
2019-02-28T23:11:34.550Z,4.73
2019-02-28T23:14:02.180Z,5.00
2019-02-28T23:16:29.750Z,5.30
2019-02-28T23:18:57.356Z,5.20
2019-02-28T23:21:24.949Z,4.73
2019-02-28T23:23:52.599Z,5.17
2019-02-28T23:26:25.043Z,5.07
2019-02-28T23:29:10.133Z,5.40
2019-02-28T23:32:18.107Z,5.10
2019-02-28T23:34:49.010Z,5.17
2019-02-28T23:37:16.636Z,5.23
2019-02-28T23:39:44.284Z,4.70
2019-02-28T23:42:11.869Z,4.90
2019-02-28T23:44:39.565Z,4.77
2019-02-28T23:47:07.176Z,5.40
2019-02-28T23:49:34.815Z,5.07
2019-02-28T23:52:02.398Z,5.03
2019-02-28T23:54:29.978Z,5.43
2019-02-28T23:56:57.520Z,4.80
2019-02-28T23:59:25.157Z,5.00
